Time;durP1;ratioP1;P1;durP2;ratioP2;P2;SDS_P1;SDS_P2;PMS_P1;PMS_P2;Temp;Humidity;BMP_temperature;BMP_pressure;BME280_temperature;BME280_humidity;BME280_pressure;Samples;Min_cycle;Max_cycle;Signal;HPM_P1;HPM_P2
2021/12/21 00:01:27;;;;;;;12.88;5.35;;;;;;;2.65;71.69;102743.19;5113347;28;20081;-66
2021/12/21 00:03:52;;;;;;;15.38;5.88;;;;;;;2.64;71.15;102731.84;5113671;28;20028;-66
2021/12/21 00:06:18;;;;;;;14.02;5.70;;;;;;;2.63;71.44;102722.22;5113405;28;20390;-66
2021/12/21 00:08:43;;;;;;;14.85;5.30;;;;;;;2.68;70.78;102736.50;5113651;28;20106;-65
2021/12/21 00:11:09;;;;;;;14.65;6.00;;;;;;;2.69;70.77;102732.16;5113329;28;20381;-65
2021/12/21 00:18:45;;;;;;;15.15;5.78;;;;;;;2.51;71.25;102739.56;5113341;28;20031;-66
2021/12/21 00:21:34;;;;;;;11.63;5.93;;;;;;;2.48;71.01;102734.13;5113458;28;20114;-65
2021/12/21 00:24:09;;;;;;;14.73;6.35;;;;;;;2.46;70.93;102731.41;5113169;28;20354;-65
2021/12/21 00:26:34;;;;;;;15.93;6.18;;;;;;;2.42;70.46;102720.63;5113212;28;20051;-65
2021/12/21 00:29:01;;;;;;;12.18;5.75;;;;;;;2.44;71.08;102726.84;5115351;28;20630;-66
2021/12/21 00:31:31;;;;;;;16.77;5.68;;;;;;;2.45;70.80;102726.09;5117070;28;20081;-65
2021/12/21 00:33:57;;;;;;;16.45;5.90;;;;;;;2.43;70.34;102718.13;5117261;28;20488;-65
2021/12/21 00:36:25;;;;;;;19.23;7.18;;;;;;;2.40;70.50;102720.53;5117065;28;20047;-65
2021/12/21 00:38:53;;;;;;;19.05;6.43;;;;;;;2.29;70.67;102713.59;5116726;28;20088;-65
2021/12/21 00:41:19;;;;;;;15.75;6.13;;;;;;;2.20;71.03;102716.44;5116311;28;20499;-65
2021/12/21 00:43:46;;;;;;;17.27;6.00;;;;;;;2.15;71.09;102709.97;5116062;28;20027;-64
2021/12/21 00:46:12;;;;;;;16.63;6.38;;;;;;;2.21;71.91;102717.34;5116216;28;20031;-65
2021/12/21 00:48:41;;;;;;;14.48;6.35;;;;;;;2.19;71.27;102709.41;5098428;28;20556;-65
2021/12/21 00:51:07;;;;;;;17.48;6.07;;;;;;;2.18;70.85;102707.56;5116858;28;20493;-65
2021/12/21 00:53:35;;;;;;;19.42;6.30;;;;;;;2.20;70.83;102711.22;5116795;28;20098;-65
2021/12/21 00:56:01;;;;;;;16.83;6.60;;;;;;;2.15;71.32;102709.06;5116761;28;20020;-65
2021/12/21 00:58:26;;;;;;;15.80;6.57;;;;;;;2.05;71.09;102710.06;5116756;28;20072;-66
2021/12/21 01:00:52;;;;;;;15.88;6.13;;;;;;;1.95;71.37;102712.78;5116725;28;20536;-65
2021/12/21 01:03:18;;;;;;;13.85;6.45;;;;;;;1.90;71.19;102715.03;5098070;28;20031;-65
2021/12/21 01:06:01;;;;;;;18.73;6.57;;;;;;;1.82;71.95;102705.72;5098105;28;20031;-66
2021/12/21 01:08:30;;;;;;;18.67;6.47;;;;;;;1.77;72.01;102711.41;5116467;28;20460;-65
2021/12/21 01:11:09;;;;;;;13.50;6.57;;;;;;;1.71;71.67;102704.94;5116297;28;20072;-66
2021/12/21 01:22:12;;;;;;;13.88;6.40;;;;;;;1.68;72.86;102714.22;5033550;28;20040;-65
2021/12/21 01:27:23;;;;;;;17.90;6.53;;;;;;;1.62;72.40;102714.63;5033547;28;20022;-65
2021/12/21 01:30:06;;;;;;;15.82;5.70;;;;;;;1.58;72.21;102707.34;5033157;28;20480;-66
2021/12/21 01:35:29;;;;;;;11.10;5.57;;;;;;;1.56;71.93;102697.63;5033018;28;20410;-65
2021/12/21 01:38:34;;;;;;;12.45;5.22;;;;;;;1.65;71.63;102703.53;5033190;28;20043;-65
2021/12/21 01:43:32;;;;;;;16.13;5.38;;;;;;;1.78;71.39;102689.75;5033198;28;20268;-66
2021/12/21 01:51:26;;;;;;;9.43;4.63;;;;;;;1.77;70.66;102701.88;5033294;28;20109;-65
2021/12/21 01:53:52;;;;;;;9.80;4.75;;;;;;;1.75;70.29;102693.00;5033002;28;20442;-65
2021/12/21 01:56:19;;;;;;;10.40;4.82;;;;;;;1.74;71.03;102692.09;5096941;28;20503;-65
2021/12/21 01:58:44;;;;;;;11.10;4.90;;;;;;;1.67;70.45;102689.84;5115324;28;20026;-65
2021/12/21 02:01:13;;;;;;;11.25;4.93;;;;;;;1.66;70.40;102694.94;5115387;28;20024;-66
2021/12/21 02:03:41;;;;;;;9.23;5.15;;;;;;;1.60;70.99;102692.78;5115368;28;20023;-65
2021/12/21 02:06:07;;;;;;;10.85;4.85;;;;;;;1.52;70.79;102680.84;5115435;28;20028;-65
2021/12/21 02:08:32;;;;;;;15.23;5.47;;;;;;;1.39;71.02;102673.78;5115421;28;20032;-65
2021/12/21 02:11:03;;;;;;;14.52;5.57;;;;;;;1.32;71.39;102681.91;5115303;28;20032;-65
2021/12/21 02:13:32;;;;;;;14.38;5.53;;;;;;;1.24;72.08;102683.00;5115191;28;20059;-65
2021/12/21 02:15:59;;;;;;;11.95;5.53;;;;;;;1.13;72.42;102678.69;5115040;28;20035;-65
2021/12/21 02:18:35;;;;;;;14.55;5.80;;;;;;;1.07;73.17;102676.50;5114991;28;20536;-65
2021/12/21 02:21:18;;;;;;;14.73;6.70;;;;;;;1.02;73.58;102680.44;5115046;28;20035;-66
2021/12/21 02:23:45;;;;;;;16.08;5.82;;;;;;;1.05;73.65;102674.56;5115316;28;20048;-66
2021/12/21 02:31:43;;;;;;;16.10;6.30;;;;;;;1.07;72.41;102676.50;5052237;28;20103;-65
2021/12/21 02:34:10;;;;;;;16.52;5.70;;;;;;;1.03;72.82;102683.94;5052165;28;20393;-65
2021/12/21 02:36:36;;;;;;;19.30;6.40;;;;;;;0.95;72.46;102676.44;5052056;28;20021;-65
2021/12/21 02:39:04;;;;;;;17.95;6.38;;;;;;;0.90;72.97;102671.66;5051790;28;20029;-65
2021/12/21 02:41:29;;;;;;;15.65;6.25;;;;;;;0.92;72.98;102680.50;5051950;28;20033;-65
2021/12/21 02:43:56;;;;;;;17.27;7.07;;;;;;;0.92;74.08;102680.50;5051940;28;20033;-65
2021/12/21 02:46:23;;;;;;;15.90;7.30;;;;;;;0.90;73.54;102676.84;5051883;28;20041;-65
2021/12/21 02:48:48;;;;;;;17.15;6.97;;;;;;;0.87;74.32;102668.81;5051729;28;20063;-65
2021/12/21 02:51:19;;;;;;;18.17;6.97;;;;;;;0.82;74.25;102676.28;5051559;28;20458;-65
2021/12/21 02:53:45;;;;;;;18.50;7.30;;;;;;;0.79;74.12;102663.00;5051633;28;20041;-66
2021/12/21 02:56:12;;;;;;;18.33;7.20;;;;;;;0.78;75.14;102670.69;5051867;28;20033;-65
2021/12/21 02:58:37;;;;;;;14.63;6.82;;;;;;;0.77;74.98;102661.97;5051587;28;20053;-65
2021/12/21 03:01:06;;;;;;;20.58;8.00;;;;;;;0.80;74.83;102661.31;5051690;28;20469;-65
2021/12/21 03:03:32;;;;;;;17.25;7.93;;;;;;;0.76;75.09;102662.75;5034807;28;20534;-65
2021/12/21 03:05:58;;;;;;;18.42;7.75;;;;;;;0.80;75.52;102656.09;5071548;28;20036;-65
2021/12/21 03:08:36;;;;;;;15.50;7.10;;;;;;;0.82;74.98;102660.66;5093755;28;20032;-66
2021/12/21 03:11:47;;;;;;;19.60;7.00;;;;;;;0.94;74.18;102664.22;5093782;28;20020;-65
2021/12/21 03:14:05;;;;;;;16.30;6.93;;;;;;;1.00;74.53;102656.88;5090619;28;20036;-65
2021/12/21 03:16:35;;;;;;;19.83;7.57;;;;;;;1.00;74.74;102656.88;5093626;28;20532;-65
2021/12/21 03:19:01;;;;;;;18.95;7.55;;;;;;;1.07;75.01;102654.75;5093336;28;20039;-65
2021/12/21 03:21:27;;;;;;;20.75;7.78;;;;;;;1.14;73.85;102659.66;5093664;28;20024;-65
2021/12/21 03:23:53;;;;;;;17.92;6.90;;;;;;;1.23;74.10;102645.66;5093522;28;20114;-65
2021/12/21 03:26:18;;;;;;;20.02;7.78;;;;;;;1.27;73.75;102649.41;5093739;28;20032;-65
2021/12/21 03:28:44;;;;;;;15.32;6.97;;;;;;;1.31;72.95;102647.94;5093571;28;20097;-65
2021/12/21 03:31:10;;;;;;;16.08;7.32;;;;;;;1.30;72.31;102651.34;5109375;28;20097;-65
2021/12/21 03:33:36;;;;;;;19.33;7.65;;;;;;;1.24;73.24;102652.69;5095364;28;20430;-66
2021/12/21 03:36:04;;;;;;;14.98;6.95;;;;;;;1.28;73.00;102648.59;5113734;28;20102;-65
2021/12/21 03:38:30;;;;;;;15.95;7.10;;;;;;;1.32;73.73;102657.56;5113854;28;20080;-65
2021/12/21 03:41:02;;;;;;;17.98;7.10;;;;;;;1.38;73.26;102652.84;5113911;28;20033;-65
2021/12/21 03:43:30;;;;;;;21.23;8.23;;;;;;;1.39;73.40;102650.34;5113666;28;20039;-65
2021/12/21 03:46:05;;;;;;;21.67;7.50;;;;;;;1.39;72.88;102646.84;5113582;28;20428;-65
2021/12/21 03:48:31;;;;;;;17.50;7.00;;;;;;;1.38;72.13;102647.63;5113350;28;20027;-65
2021/12/21 03:50:56;;;;;;;17.98;7.25;;;;;;;1.34;72.74;102648.19;5113588;28;20102;-65
2021/12/21 03:53:22;;;;;;;16.58;7.57;;;;;;;1.26;72.34;102647.59;5113787;28;20123;-66
2021/12/21 03:55:53;;;;;;;17.70;7.28;;;;;;;1.15;71.98;102654.56;5113710;28;20072;-65
2021/12/21 03:58:19;;;;;;;16.63;6.70;;;;;;;1.10;72.03;102655.00;5113421;28;20102;-65
2021/12/21 04:00:44;;;;;;;17.55;7.07;;;;;;;1.07;71.55;102644.34;5113705;28;20091;-65
2021/12/21 04:03:09;;;;;;;17.23;7.70;;;;;;;1.09;72.09;102651.50;5114185;28;20016;-66
2021/12/21 04:05:35;;;;;;;20.55;8.40;;;;;;;1.02;72.76;102650.88;5099365;28;20020;-65
2021/12/21 04:08:03;;;;;;;22.13;8.27;;;;;;;0.83;73.06;102627.72;5117634;28;20034;-65
2021/12/21 04:10:28;;;;;;;23.35;7.85;;;;;;;0.75;73.79;102645.34;5117786;28;20031;-65
2021/12/21 04:12:59;;;;;;;16.90;7.55;;;;;;;0.67;73.94;102642.13;5117570;28;20039;-65
2021/12/21 04:15:28;;;;;;;16.42;7.40;;;;;;;0.63;74.34;102641.75;5117686;28;20047;-65
2021/12/21 04:17:55;;;;;;;19.63;7.38;;;;;;;0.57;74.68;102647.38;5117155;28;20106;-65
2021/12/21 04:20:20;;;;;;;15.80;7.50;;;;;;;0.51;74.24;102639.06;5117489;28;20026;-65
2021/12/21 04:22:45;;;;;;;20.77;7.65;;;;;;;0.48;74.68;102631.06;5117299;28;20020;-65
2021/12/21 04:25:12;;;;;;;19.50;8.35;;;;;;;0.50;73.80;102639.88;5117385;28;20020;-65
2021/12/21 04:27:38;;;;;;;18.05;7.65;;;;;;;0.47;73.33;102645.75;5117416;28;20046;-65
2021/12/21 04:30:04;;;;;;;14.57;7.13;;;;;;;0.50;74.09;102652.88;5117246;28;20370;-65
2021/12/21 04:32:29;;;;;;;19.85;7.47;;;;;;;0.55;73.31;102650.63;5117079;28;20106;-65
2021/12/21 04:34:55;;;;;;;16.15;7.05;;;;;;;0.55;73.29;102643.75;5117100;28;20028;-65
2021/12/21 04:37:22;;;;;;;15.52;7.25;;;;;;;0.56;72.43;102640.38;5117121;28;20020;-65
2021/12/21 04:40:03;;;;;;;21.45;7.60;;;;;;;0.56;72.35;102639.44;5117233;28;20063;-65
2021/12/21 04:42:29;;;;;;;18.48;7.30;;;;;;;0.53;72.80;102640.13;5117075;28;20028;-66
2021/12/21 04:44:54;;;;;;;20.30;7.43;;;;;;;0.46;72.91;102628.31;5117517;28;20016;-66
2021/12/21 04:47:20;;;;;;;12.93;6.53;;;;;;;0.45;72.31;102646.41;5116858;28;20024;-66
2021/12/21 04:49:45;;;;;;;14.57;6.80;;;;;;;0.45;72.43;102638.59;5117041;28;20031;-65
2021/12/21 04:52:11;;;;;;;20.42;7.78;;;;;;;0.42;72.48;102641.84;5116742;28;20484;-65
2021/12/21 04:54:37;;;;;;;16.40;6.55;;;;;;;0.44;72.75;102644.59;5116718;28;20016;-65
2021/12/21 04:57:02;;;;;;;16.35;7.13;;;;;;;0.48;72.91;102638.84;5116884;28;20031;-65
2021/12/21 04:59:28;;;;;;;14.82;7.05;;;;;;;0.48;71.94;102631.06;5116821;28;20027;-65
2021/12/21 05:01:54;;;;;;;19.85;7.63;;;;;;;0.50;72.38;102629.47;5116633;28;20024;-65
2021/12/21 05:04:20;;;;;;;20.17;7.57;;;;;;;0.47;72.15;102632.75;5116486;28;20080;-65
2021/12/21 05:06:46;;;;;;;14.25;6.55;;;;;;;0.39;71.77;102635.53;5116520;28;20032;-65
2021/12/21 05:09:21;;;;;;;11.80;5.60;;;;;;;0.31;72.44;102634.00;5116662;28;20034;-65
2021/12/21 05:11:46;;;;;;;20.73;6.50;;;;;;;0.21;71.97;102632.31;5116401;28;20035;-65
2021/12/21 05:14:11;;;;;;;12.80;6.50;;;;;;;0.15;72.83;102632.75;5116135;28;20032;-65
2021/12/21 05:16:37;;;;;;;13.73;5.28;;;;;;;0.05;72.47;102639.69;5116228;28;20114;-65
2021/12/21 05:19:03;;;;;;;9.73;5.18;;;;;;;-0.02;73.32;102651.25;5115716;28;20027;-65
2021/12/21 05:21:29;;;;;;;13.38;5.82;;;;;;;-0.03;73.20;102645.13;5115655;28;20464;-65
2021/12/21 05:23:54;;;;;;;15.93;6.40;;;;;;;-0.05;73.06;102638.00;5115691;28;20031;-65
2021/12/21 05:26:19;;;;;;;15.70;6.28;;;;;;;0.01;72.84;102643.72;5115838;28;20532;-65
2021/12/21 05:28:45;;;;;;;14.90;6.82;;;;;;;0.06;73.27;102645.00;5116168;28;20034;-65
2021/12/21 05:31:10;;;;;;;19.85;7.07;;;;;;;0.06;73.47;102636.28;5115840;28;20035;-65
2021/12/21 05:33:36;;;;;;;13.52;6.32;;;;;;;0.09;73.01;102637.44;5115993;28;20031;-65
2021/12/21 05:36:01;;;;;;;14.07;6.18;;;;;;;0.15;72.15;102642.22;5116146;28;20534;-65
2021/12/21 05:38:33;;;;;;;15.85;7.18;;;;;;;0.18;72.35;102642.50;5115871;28;20016;-65
2021/12/21 05:41:03;;;;;;;17.88;6.82;;;;;;;0.12;72.58;102642.88;5116013;28;20043;-65
2021/12/21 05:43:29;;;;;;;13.98;6.43;;;;;;;0.13;72.00;102641.19;5115908;28;20108;-65
2021/12/21 05:45:55;;;;;;;11.77;6.20;;;;;;;0.10;71.72;102643.56;5115664;28;20106;-66
2021/12/21 05:48:21;;;;;;;13.52;6.18;;;;;;;0.04;72.05;102638.75;5115619;28;20150;-65
2021/12/21 05:50:49;;;;;;;12.30;5.93;;;;;;;0.06;72.47;102651.88;5115870;28;20015;-65
2021/12/21 05:53:15;;;;;;;13.60;6.28;;;;;;;0.08;72.10;102655.50;5115602;28;20572;-65
2021/12/21 05:55:41;;;;;;;16.75;6.20;;;;;;;0.06;71.96;102657.97;5097378;28;20020;-65
2021/12/21 05:58:07;;;;;;;16.92;6.55;;;;;;;0.04;71.54;102645.63;5115476;28;20079;-65
2021/12/21 06:00:34;;;;;;;14.60;5.53;;;;;;;0.08;71.66;102651.19;5115483;28;20440;-65
2021/12/21 06:03:00;;;;;;;12.40;5.75;;;;;;;0.12;72.01;102647.16;5115699;28;20418;-65
2021/12/21 06:05:26;;;;;;;19.95;9.35;;;;;;;0.14;72.04;102628.34;5115249;28;20507;-65
2021/12/21 06:07:55;;;;;;;116.65;41.03;;;;;;;0.18;71.54;102635.59;5115336;28;20027;-65
2021/12/21 06:10:36;;;;;;;65.50;25.52;;;;;;;0.15;71.50;102644.84;5115252;28;20031;-64
2021/12/21 06:26:31;;;;;;;14.77;6.95;;;;;;;0.02;72.08;102658.50;4992438;28;20518;-65
2021/12/21 06:28:57;;;;;;;14.60;6.72;;;;;;;-0.01;71.50;102638.38;4993031;28;20184;-65
2021/12/21 06:31:23;;;;;;;14.02;7.00;;;;;;;0.01;71.20;102648.00;4992647;28;20129;-65
2021/12/21 06:33:49;;;;;;;14.77;6.70;;;;;;;0.02;71.75;102644.63;4992770;28;20057;-65
2021/12/21 06:36:15;;;;;;;14.45;6.47;;;;;;;0.07;71.84;102638.09;4992769;28;20034;-66
2021/12/21 06:38:41;;;;;;;13.25;5.95;;;;;;;0.08;70.62;102645.09;4992801;28;20038;-65
2021/12/21 06:41:06;;;;;;;12.40;6.50;;;;;;;-0.04;70.63;102640.72;4992861;28;20030;-65
2021/12/21 06:43:33;;;;;;;13.23;6.07;;;;;;;-0.12;70.44;102638.28;4992803;28;20041;-65
2021/12/21 06:51:34;;;;;;;13.23;6.50;;;;;;;-0.49;72.27;102636.91;5036286;28;20055;-65
2021/12/21 06:54:00;;;;;;;15.55;7.00;;;;;;;-0.48;72.94;102647.41;5114706;28;20062;-65
2021/12/21 06:56:27;;;;;;;14.38;6.72;;;;;;;-0.42;72.64;102644.44;5114353;28;20051;-65
2021/12/21 06:58:55;;;;;;;14.70;6.88;;;;;;;-0.41;71.83;102649.75;5096085;28;20023;-65
2021/12/21 07:01:20;;;;;;;13.48;6.75;;;;;;;-0.38;71.85;102649.13;5114367;28;20023;-65
2021/12/21 07:03:46;;;;;;;13.73;6.50;;;;;;;-0.32;72.01;102650.53;5114348;28;20396;-65
2021/12/21 07:06:18;;;;;;;13.25;6.13;;;;;;;-0.27;71.33;102651.81;5114496;28;20499;-65
2021/12/21 07:09:10;;;;;;;13.73;6.45;;;;;;;-0.28;71.67;102644.81;5114209;28;20042;-65
2021/12/21 07:11:46;;;;;;;14.95;6.80;;;;;;;-0.31;71.89;102652.31;5113479;28;20118;-65
2021/12/21 07:19:42;;;;;;;16.70;7.07;;;;;;;-0.57;72.11;102651.84;5113980;28;20561;-65
2021/12/21 07:22:08;;;;;;;16.48;7.18;;;;;;;-0.52;73.52;102650.53;5113922;28;20081;-65
2021/12/21 07:24:34;;;;;;;15.20;7.55;;;;;;;-0.45;72.53;102654.56;5113734;28;20020;-65
2021/12/21 07:27:00;;;;;;;15.35;6.88;;;;;;;-0.45;72.79;102657.16;5113704;28;21004;-65
2021/12/21 07:29:25;;;;;;;16.27;6.68;;;;;;;-0.40;72.85;102655.84;5113635;28;20081;-65
2021/12/21 07:31:51;;;;;;;15.93;7.13;;;;;;;-0.40;72.47;102655.84;5113786;28;20065;-65
2021/12/21 07:34:16;;;;;;;14.27;7.05;;;;;;;-0.33;73.16;102658.19;5113410;28;20034;-65
2021/12/21 07:36:45;;;;;;;17.13;7.50;;;;;;;-0.37;72.59;102649.22;5113220;28;20386;-65
2021/12/21 07:39:13;;;;;;;13.88;6.60;;;;;;;-0.29;71.79;102663.78;5112649;28;20068;-65
2021/12/21 07:41:39;;;;;;;17.25;6.60;;;;;;;-0.31;71.54;102661.81;5113076;28;20027;-65
2021/12/21 07:44:05;;;;;;;15.88;6.72;;;;;;;-0.33;72.04;102661.69;5112986;28;20027;-64
2021/12/21 07:46:30;;;;;;;15.90;7.10;;;;;;;-0.29;72.03;102663.78;5113157;28;20032;-65
2021/12/21 07:48:56;;;;;;;19.15;6.80;;;;;;;-0.28;71.82;102662.06;5113487;28;20068;-65
2021/12/21 07:51:21;;;;;;;19.17;7.25;;;;;;;-0.35;71.62;102665.84;5113089;28;20020;-65
2021/12/21 07:53:48;;;;;;;15.25;6.88;;;;;;;-0.33;71.51;102669.50;5113162;28;20028;-65
2021/12/21 07:56:16;;;;;;;18.55;7.13;;;;;;;-0.28;72.04;102673.38;5112965;28;20055;-65
2021/12/21 07:58:42;;;;;;;16.75;6.93;;;;;;;-0.32;71.39;102663.50;5112976;28;20080;-64
2021/12/21 08:01:08;;;;;;;17.02;6.90;;;;;;;-0.21;70.96;102677.41;5113163;28;20054;-65
2021/12/21 08:03:34;;;;;;;20.63;7.75;;;;;;;-0.16;71.29;102685.59;5112946;28;20571;-64
2021/12/21 08:06:03;;;;;;;20.10;7.95;;;;;;;-0.14;71.34;102673.63;5113115;28;20039;-65
2021/12/21 08:08:30;;;;;;;19.50;7.35;;;;;;;-0.16;71.78;102681.28;5112955;28;20477;-65
2021/12/21 08:11:17;;;;;;;18.02;7.70;;;;;;;-0.18;72.49;102675.03;5112980;28;20047;-65
2021/12/21 08:13:47;;;;;;;14.23;6.68;;;;;;;-0.07;72.38;102676.84;5112923;28;20030;-65
2021/12/21 08:16:13;;;;;;;16.27;6.65;;;;;;;0.12;72.48;102675.75;5113124;28;20032;-65
2021/12/21 08:18:39;;;;;;;15.48;7.25;;;;;;;0.34;72.11;102681.91;5112478;28;20465;-64
2021/12/21 08:21:05;;;;;;;17.05;6.72;;;;;;;0.60;72.51;102677.91;5113088;28;20019;-65
2021/12/21 08:23:30;;;;;;;11.80;6.15;;;;;;;0.82;72.21;102662.34;5112668;28;20134;-64
2021/12/21 08:25:56;;;;;;;16.25;7.07;;;;;;;1.04;71.53;102668.47;5113003;28;20027;-65
2021/12/21 08:28:23;;;;;;;14.50;6.65;;;;;;;1.26;71.60;102673.63;5112715;28;20024;-64
2021/12/21 08:30:49;;;;;;;13.40;6.82;;;;;;;1.58;72.46;102663.06;5112754;28;20052;-65
2021/12/21 08:33:14;;;;;;;15.07;7.07;;;;;;;1.92;71.37;102669.13;5112952;28;20023;-64
2021/12/21 08:35:40;;;;;;;18.00;7.78;;;;;;;2.29;70.71;102666.66;5112608;28;20530;-64
2021/12/21 08:38:09;;;;;;;15.25;7.72;;;;;;;2.65;69.33;102670.09;5112927;28;20024;-65
2021/12/21 08:40:39;;;;;;;16.63;7.93;;;;;;;2.97;68.99;102668.09;5112676;28;20119;-64
2021/12/21 08:43:11;;;;;;;17.40;8.30;;;;;;;3.22;68.37;102669.84;5112847;28;20113;-64
2021/12/21 08:45:38;;;;;;;16.10;8.15;;;;;;;3.54;68.82;102679.88;5112767;28;20023;-64
2021/12/21 08:48:05;;;;;;;19.70;8.50;;;;;;;3.83;67.22;102675.72;5112735;28;20106;-64
2021/12/21 08:50:31;;;;;;;19.85;8.23;;;;;;;4.15;66.65;102677.88;5115630;28;20023;-65
2021/12/21 08:52:58;;;;;;;19.70;8.25;;;;;;;4.43;65.47;102671.03;5116304;28;20035;-64
2021/12/21 08:55:23;;;;;;;17.58;7.47;;;;;;;4.65;64.58;102672.41;5116431;28;20049;-65
2021/12/21 08:57:49;;;;;;;16.42;7.82;;;;;;;4.82;63.93;102673.50;5116608;28;20023;-64
2021/12/21 09:00:15;;;;;;;18.50;8.88;;;;;;;4.94;63.29;102676.88;5116369;28;20464;-65
2021/12/21 09:02:41;;;;;;;16.27;8.73;;;;;;;5.06;63.87;102671.50;5116222;28;20020;-65
2021/12/21 09:05:12;;;;;;;23.02;9.02;;;;;;;5.11;63.18;102670.09;5116238;28;20433;-65
2021/12/21 09:07:39;;;;;;;18.60;9.05;;;;;;;5.27;63.25;102679.00;5116589;28;20037;-65
2021/12/21 09:10:06;;;;;;;21.17;9.50;;;;;;;5.47;63.04;102674.94;5116161;28;20503;-65
2021/12/21 09:12:31;;;;;;;19.63;8.75;;;;;;;5.80;63.07;102682.13;5116079;28;20448;-65
2021/12/21 09:14:56;;;;;;;18.90;8.95;;;;;;;6.08;62.07;102683.00;5116138;28;20065;-65
2021/12/21 09:17:22;;;;;;;20.20;9.13;;;;;;;6.37;62.00;102681.13;5115933;28;20107;-65
2021/12/21 09:19:47;;;;;;;17.65;8.75;;;;;;;6.49;60.13;102679.22;5115813;28;20024;-65
2021/12/21 09:22:12;;;;;;;20.45;9.93;;;;;;;6.64;60.04;102671.31;5115813;28;20149;-65
2021/12/21 09:24:38;;;;;;;21.55;9.57;;;;;;;6.81;59.71;102670.53;5115824;28;20019;-65
2021/12/21 09:27:03;;;;;;;17.98;9.48;;;;;;;7.03;59.72;102683.09;5115793;28;20028;-66
2021/12/21 09:29:29;;;;;;;18.02;8.70;;;;;;;7.20;57.85;102663.91;5115596;28;20381;-66
2021/12/21 09:31:54;;;;;;;15.27;8.80;;;;;;;7.51;58.60;102683.94;5097109;28;20032;-66
2021/12/21 09:34:19;;;;;;;24.40;10.43;;;;;;;7.64;57.06;102667.97;5115787;28;20094;-65
2021/12/21 09:36:45;;;;;;;24.73;10.43;;;;;;;7.85;57.16;102664.63;5115658;28;20030;-65
2021/12/21 09:39:10;;;;;;;18.92;9.57;;;;;;;8.11;57.34;102664.22;5115551;28;20468;-66
2021/12/21 09:41:36;;;;;;;20.02;9.35;;;;;;;8.38;56.50;102661.16;5115534;28;20024;-66
2021/12/21 09:44:01;;;;;;;18.73;9.35;;;;;;;8.42;55.03;102658.75;5115483;28;20106;-65
2021/12/21 09:46:26;;;;;;;20.85;9.05;;;;;;;8.60;54.66;102658.72;5115385;28;20085;-65
2021/12/21 09:48:52;;;;;;;20.77;8.80;;;;;;;8.83;54.73;102666.84;5115422;28;20110;-66
2021/12/21 09:51:18;;;;;;;17.65;8.45;;;;;;;9.11;52.66;102661.09;5115643;28;20054;-66
2021/12/21 09:53:43;;;;;;;17.88;9.18;;;;;;;9.33;52.09;102655.94;5115672;28;20469;-66
2021/12/21 09:56:08;;;;;;;22.48;8.25;;;;;;;9.46;50.93;102658.34;5115355;28;20434;-66
2021/12/21 09:58:35;;;;;;;18.73;8.80;;;;;;;9.52;50.85;102650.66;5096924;28;20023;-66
2021/12/21 10:01:02;;;;;;;15.77;8.27;;;;;;;9.30;50.08;102662.84;5114090;28;20028;-66
2021/12/21 10:03:27;;;;;;;19.98;8.52;;;;;;;9.48;50.77;102664.56;5115090;28;20031;-67
2021/12/21 10:06:10;;;;;;;16.65;8.52;;;;;;;9.70;51.69;102657.59;5114780;28;20031;-65
2021/12/21 10:08:36;;;;;;;16.90;8.13;;;;;;;9.88;50.08;102649.53;5114477;28;20473;-66
2021/12/21 10:11:04;;;;;;;19.05;8.40;;;;;;;9.81;48.91;102645.75;5114330;28;20031;-65
2021/12/21 10:13:30;;;;;;;18.08;9.05;;;;;;;10.14;49.19;102653.28;5114196;28;20028;-65
2021/12/21 10:16:03;;;;;;;17.83;8.45;;;;;;;10.39;49.68;102656.13;5114975;28;20027;-66
2021/12/21 10:18:34;;;;;;;19.13;8.35;;;;;;;10.58;49.03;102654.22;5114637;28;20032;-66
2021/12/21 10:21:03;;;;;;;12.85;8.05;;;;;;;10.57;47.38;102648.03;5114690;28;20379;-66
2021/12/21 10:23:31;;;;;;;16.45;8.27;;;;;;;10.69;47.37;102642.31;5114902;28;20022;-67
2021/12/21 10:26:05;;;;;;;15.88;9.10;;;;;;;10.71;48.00;102638.03;5114752;28;20031;-65
2021/12/21 10:28:41;;;;;;;17.70;9.13;;;;;;;10.69;48.23;102627.34;5114624;28;20130;-65
2021/12/21 10:31:36;;;;;;;15.13;8.90;;;;;;;10.84;49.66;102627.06;5114541;28;20050;-66
2021/12/21 10:34:04;;;;;;;20.20;8.88;;;;;;;11.09;47.20;102625.31;5114368;28;20028;-65
2021/12/21 10:36:31;;;;;;;17.38;8.45;;;;;;;11.00;45.37;102624.13;5114428;28;20019;-66
2021/12/21 10:39:01;;;;;;;16.80;8.35;;;;;;;11.12;46.09;102631.63;5096060;28;20023;-65
2021/12/21 10:41:32;;;;;;;17.17;8.35;;;;;;;11.30;45.55;102623.47;5114461;28;20027;-64
2021/12/21 10:44:04;;;;;;;16.88;8.35;;;;;;;11.36;45.21;102629.00;5114661;28;20061;-65
2021/12/21 10:46:31;;;;;;;15.25;8.25;;;;;;;11.59;44.92;102632.44;5114322;28;20081;-65
2021/12/21 10:49:10;;;;;;;15.85;8.00;;;;;;;11.79;45.88;102630.50;5114218;28;20063;-65
2021/12/21 10:52:04;;;;;;;14.57;7.78;;;;;;;11.81;46.97;102628.78;5114322;28;20027;-65
2021/12/21 10:54:29;;;;;;;14.13;7.90;;;;;;;11.92;44.29;102622.16;5104854;28;20122;-64
2021/12/21 10:57:00;;;;;;;12.55;7.25;;;;;;;12.15;44.14;102627.31;5113998;28;20453;-64
2021/12/21 10:59:30;;;;;;;14.77;7.55;;;;;;;12.36;43.15;102619.16;5113891;28;20023;-64
2021/12/21 11:02:14;;;;;;;15.13;7.80;;;;;;;12.43;43.76;102616.75;5114237;28;20019;-64
2021/12/21 11:04:44;;;;;;;16.63;6.95;;;;;;;12.55;42.02;102608.28;5113827;28;20031;-64
2021/12/21 11:07:30;;;;;;;15.30;7.38;;;;;;;12.49;44.13;102618.69;5113718;28;20468;-65
2021/12/21 11:09:58;;;;;;;16.13;7.18;;;;;;;12.57;41.31;102613.63;5113798;28;20027;-64
2021/12/21 11:12:28;;;;;;;13.65;6.20;;;;;;;12.73;41.03;102607.94;5113556;28;20541;-64
2021/12/21 11:14:57;;;;;;;12.73;6.45;;;;;;;12.95;41.22;102599.75;5113841;28;20043;-64
2021/12/21 11:17:23;;;;;;;11.68;6.50;;;;;;;13.03;39.75;102600.00;5113654;28;20023;-64
2021/12/21 11:19:52;;;;;;;12.30;6.45;;;;;;;13.21;39.82;102611.13;5113536;28;20034;-64
2021/12/21 11:22:20;;;;;;;14.38;6.28;;;;;;;13.39;39.68;102600.16;5095164;28;20047;-64
2021/12/21 11:24:47;;;;;;;13.55;6.72;;;;;;;13.54;38.43;102602.34;5113657;28;20057;-64
2021/12/21 11:27:14;;;;;;;12.63;5.90;;;;;;;13.35;37.59;102597.38;5113924;28;20041;-64
2021/12/21 11:29:41;;;;;;;11.98;6.15;;;;;;;13.56;38.44;102599.72;5112935;28;20050;-63
2021/12/21 11:32:07;;;;;;;17.52;7.00;;;;;;;13.41;38.52;102590.47;5113412;28;20043;-62
2021/12/21 11:34:34;;;;;;;14.48;7.35;;;;;;;13.40;38.69;102582.44;5113390;28;20019;-63
2021/12/21 11:39:44;;;;;;;12.27;6.75;;;;;;;12.91;37.97;102557.19;5113511;28;20092;-64
2021/12/21 11:42:19;;;;;;;16.52;6.88;;;;;;;12.61;39.42;102554.53;5113492;28;20024;-64
2021/12/21 11:44:53;;;;;;;15.35;8.23;;;;;;;12.75;40.82;102558.47;5113318;28;20087;-64
2021/12/21 11:47:53;;;;;;;11.10;6.50;;;;;;;12.99;41.54;102553.00;5113146;28;20084;-64
2021/12/21 11:50:18;;;;;;;14.50;6.70;;;;;;;13.45;39.83;102551.63;5098040;28;20107;-64
2021/12/21 11:52:49;;;;;;;11.50;6.45;;;;;;;13.45;38.88;102556.94;5113474;28;20488;-64
2021/12/21 11:55:17;;;;;;;13.43;7.05;;;;;;;13.42;38.54;102562.16;5113254;28;20106;-65
2021/12/21 11:57:52;;;;;;;14.20;7.00;;;;;;;13.31;38.58;102558.31;5113246;28;20020;-65
2021/12/21 12:00:19;;;;;;;15.88;6.93;;;;;;;12.78;38.00;102558.59;5113155;28;20031;-65
2021/12/21 12:02:46;;;;;;;13.70;6.60;;;;;;;13.24;39.09;102562.56;5094927;28;20023;-65
2021/12/21 12:05:21;;;;;;;14.13;7.07;;;;;;;13.09;38.96;102554.13;5112948;28;20107;-65
2021/12/21 12:08:05;;;;;;;11.80;6.53;;;;;;;13.21;40.05;102566.00;5113125;28;20076;-65
2021/12/21 12:10:32;;;;;;;12.48;6.72;;;;;;;13.48;37.62;102549.03;5113566;28;20034;-65
2021/12/21 12:13:17;;;;;;;13.23;6.82;;;;;;;13.60;39.85;102551.13;5113104;28;20075;-65
2021/12/21 12:15:52;;;;;;;17.20;7.38;;;;;;;13.73;38.51;102542.59;5113360;28;20027;-66
2021/12/21 12:18:20;;;;;;;14.38;6.50;;;;;;;14.13;36.50;102536.50;5113025;28;20507;-65
2021/12/21 12:20:45;;;;;;;15.65;7.38;;;;;;;14.27;37.09;102532.38;5112478;28;20511;-65
2021/12/21 12:23:12;;;;;;;9.95;6.50;;;;;;;14.53;37.25;102530.31;5112875;28;20051;-66
2021/12/21 12:25:52;;;;;;;15.18;6.65;;;;;;;14.71;37.33;102528.91;5116589;28;20028;-66
2021/12/21 12:28:32;;;;;;;11.40;6.90;;;;;;;14.85;37.35;102543.38;5116929;28;20020;-65